sensor_id;sensor_type;location;lat;lon;timestamp;P1;durP1;ratioP1;P2;durP2;ratioP2
78549;SDS011;68091;52.130;5.570;2023-04-15T00:02:13;15.25;;;7.45;;
78549;SDS011;68091;52.130;5.570;2023-04-15T00:04:40;16.25;;;7.18;;
78549;SDS011;68091;52.130;5.570;2023-04-15T00:07:06;13.63;;;6.95;;
78549;SDS011;68091;52.130;5.570;2023-04-15T00:09:35;14.55;;;7.03;;
78549;SDS011;68091;52.130;5.570;2023-04-15T00:12:04;19.10;;;7.82;;
78549;SDS011;68091;52.130;5.570;2023-04-15T00:14:30;15.82;;;7.10;;
78549;SDS011;68091;52.130;5.570;2023-04-15T00:16:56;15.95;;;7.10;;
78549;SDS011;68091;52.130;5.570;2023-04-15T00:19:22;14.57;;;7.15;;
78549;SDS011;68091;52.130;5.570;2023-04-15T00:21:51;14.85;;;7.22;;
78549;SDS011;68091;52.130;5.570;2023-04-15T00:24:16;18.40;;;7.15;;
78549;SDS011;68091;52.130;5.570;2023-04-15T00:26:42;21.27;;;8.20;;
78549;SDS011;68091;52.130;5.570;2023-04-15T00:29:09;13.00;;;7.55;;
78549;SDS011;68091;52.130;5.570;2023-04-15T00:31:38;14.48;;;6.80;;
78549;SDS011;68091;52.130;5.570;2023-04-15T00:34:06;18.77;;;7.50;;
78549;SDS011;68091;52.130;5.570;2023-04-15T00:36:32;17.65;;;8.10;;
78549;SDS011;68091;52.130;5.570;2023-04-15T00:38:59;12.73;;;6.95;;
78549;SDS011;68091;52.130;5.570;2023-04-15T00:41:25;15.75;;;7.80;;
78549;SDS011;68091;52.130;5.570;2023-04-15T00:43:51;13.35;;;7.22;;
78549;SDS011;68091;52.130;5.570;2023-04-15T00:46:17;14.65;;;7.30;;
78549;SDS011;68091;52.130;5.570;2023-04-15T00:48:45;13.27;;;7.22;;
78549;SDS011;68091;52.130;5.570;2023-04-15T00:51:12;15.13;;;8.27;;
78549;SDS011;68091;52.130;5.570;2023-04-15T00:53:40;18.30;;;7.45;;
78549;SDS011;68091;52.130;5.570;2023-04-15T00:56:06;13.50;;;7.20;;
78549;SDS011;68091;52.130;5.570;2023-04-15T00:58:32;17.67;;;7.70;;
78549;SDS011;68091;52.130;5.570;2023-04-15T01:00:58;17.15;;;7.53;;
78549;SDS011;68091;52.130;5.570;2023-04-15T01:03:28;18.60;;;8.13;;
78549;SDS011;68091;52.130;5.570;2023-04-15T01:05:55;15.82;;;8.43;;
78549;SDS011;68091;52.130;5.570;2023-04-15T01:08:27;12.85;;;8.02;;
78549;SDS011;68091;52.130;5.570;2023-04-15T01:10:54;16.88;;;8.07;;
78549;SDS011;68091;52.130;5.570;2023-04-15T01:13:31;14.80;;;7.70;;
78549;SDS011;68091;52.130;5.570;2023-04-15T01:15:58;17.52;;;8.27;;
78549;SDS011;68091;52.130;5.570;2023-04-15T01:18:27;14.90;;;8.27;;
78549;SDS011;68091;52.130;5.570;2023-04-15T01:20:54;13.07;;;7.45;;
78549;SDS011;68091;52.130;5.570;2023-04-15T01:23:20;15.98;;;8.70;;
78549;SDS011;68091;52.130;5.570;2023-04-15T01:25:49;15.35;;;7.95;;
78549;SDS011;68091;52.130;5.570;2023-04-15T01:28:17;14.35;;;8.00;;
78549;SDS011;68091;52.130;5.570;2023-04-15T01:30:44;14.98;;;8.40;;
78549;SDS011;68091;52.130;5.570;2023-04-15T01:33:10;16.95;;;8.75;;
78549;SDS011;68091;52.130;5.570;2023-04-15T01:35:36;15.55;;;8.35;;
78549;SDS011;68091;52.130;5.570;2023-04-15T01:38:04;15.40;;;8.05;;
78549;SDS011;68091;52.130;5.570;2023-04-15T01:40:34;17.77;;;8.63;;
78549;SDS011;68091;52.130;5.570;2023-04-15T01:43:00;14.75;;;8.90;;
78549;SDS011;68091;52.130;5.570;2023-04-15T01:45:26;18.38;;;7.95;;
78549;SDS011;68091;52.130;5.570;2023-04-15T01:47:52;12.00;;;7.50;;
78549;SDS011;68091;52.130;5.570;2023-04-15T01:50:18;11.73;;;7.68;;
78549;SDS011;68091;52.130;5.570;2023-04-15T01:52:45;16.92;;;8.35;;
78549;SDS011;68091;52.130;5.570;2023-04-15T01:55:16;13.98;;;8.20;;
78549;SDS011;68091;52.130;5.570;2023-04-15T01:57:42;15.43;;;8.52;;
78549;SDS011;68091;52.130;5.570;2023-04-15T02:00:08;16.13;;;8.07;;
78549;SDS011;68091;52.130;5.570;2023-04-15T02:02:35;17.85;;;8.23;;
78549;SDS011;68091;52.130;5.570;2023-04-15T02:05:05;14.48;;;7.80;;
78549;SDS011;68091;52.130;5.570;2023-04-15T02:07:31;12.27;;;8.18;;
78549;SDS011;68091;52.130;5.570;2023-04-15T02:09:57;15.32;;;7.75;;
78549;SDS011;68091;52.130;5.570;2023-04-15T02:12:23;18.45;;;9.65;;
78549;SDS011;68091;52.130;5.570;2023-04-15T02:14:48;15.82;;;8.93;;
78549;SDS011;68091;52.130;5.570;2023-04-15T02:17:14;20.98;;;8.43;;
78549;SDS011;68091;52.130;5.570;2023-04-15T02:19:40;16.63;;;8.52;;
78549;SDS011;68091;52.130;5.570;2023-04-15T02:22:06;11.60;;;7.82;;
78549;SDS011;68091;52.130;5.570;2023-04-15T02:24:33;15.02;;;8.30;;
78549;SDS011;68091;52.130;5.570;2023-04-15T02:27:05;17.67;;;8.27;;
78549;SDS011;68091;52.130;5.570;2023-04-15T02:29:34;16.80;;;7.85;;
78549;SDS011;68091;52.130;5.570;2023-04-15T02:32:00;12.60;;;7.57;;
78549;SDS011;68091;52.130;5.570;2023-04-15T02:34:25;14.27;;;7.72;;
78549;SDS011;68091;52.130;5.570;2023-04-15T02:36:51;14.60;;;8.23;;
78549;SDS011;68091;52.130;5.570;2023-04-15T02:39:21;14.77;;;8.07;;
78549;SDS011;68091;52.130;5.570;2023-04-15T02:41:48;14.50;;;8.23;;
78549;SDS011;68091;52.130;5.570;2023-04-15T02:44:23;15.38;;;8.10;;
78549;SDS011;68091;52.130;5.570;2023-04-15T02:46:49;15.07;;;8.68;;
78549;SDS011;68091;52.130;5.570;2023-04-15T02:49:16;17.95;;;8.18;;
78549;SDS011;68091;52.130;5.570;2023-04-15T02:51:43;18.52;;;8.32;;
78549;SDS011;68091;52.130;5.570;2023-04-15T02:54:13;16.00;;;8.90;;
78549;SDS011;68091;52.130;5.570;2023-04-15T02:56:49;17.25;;;8.95;;
78549;SDS011;68091;52.130;5.570;2023-04-15T02:59:19;17.05;;;8.63;;
78549;SDS011;68091;52.130;5.570;2023-04-15T03:01:45;16.35;;;8.02;;
78549;SDS011;68091;52.130;5.570;2023-04-15T03:04:10;18.48;;;8.82;;
78549;SDS011;68091;52.130;5.570;2023-04-15T03:06:37;15.00;;;9.43;;
78549;SDS011;68091;52.130;5.570;2023-04-15T03:09:03;14.43;;;8.35;;
78549;SDS011;68091;52.130;5.570;2023-04-15T03:11:29;12.63;;;9.05;;
78549;SDS011;68091;52.130;5.570;2023-04-15T03:13:55;12.27;;;8.57;;
78549;SDS011;68091;52.130;5.570;2023-04-15T03:16:22;16.50;;;8.63;;
78549;SDS011;68091;52.130;5.570;2023-04-15T03:18:48;14.15;;;8.77;;
78549;SDS011;68091;52.130;5.570;2023-04-15T03:21:14;17.45;;;9.20;;
78549;SDS011;68091;52.130;5.570;2023-04-15T03:23:40;14.57;;;9.00;;
78549;SDS011;68091;52.130;5.570;2023-04-15T03:26:06;18.25;;;9.23;;
78549;SDS011;68091;52.130;5.570;2023-04-15T03:28:32;19.02;;;9.60;;
78549;SDS011;68091;52.130;5.570;2023-04-15T03:30:58;13.88;;;9.00;;
78549;SDS011;68091;52.130;5.570;2023-04-15T03:33:24;12.88;;;8.63;;
78549;SDS011;68091;52.130;5.570;2023-04-15T03:35:50;16.13;;;9.13;;
78549;SDS011;68091;52.130;5.570;2023-04-15T03:38:17;15.30;;;9.15;;
78549;SDS011;68091;52.130;5.570;2023-04-15T03:40:46;20.38;;;10.23;;
78549;SDS011;68091;52.130;5.570;2023-04-15T03:43:12;17.40;;;10.43;;
78549;SDS011;68091;52.130;5.570;2023-04-15T03:45:38;16.90;;;9.32;;
78549;SDS011;68091;52.130;5.570;2023-04-15T03:48:04;21.17;;;9.55;;
78549;SDS011;68091;52.130;5.570;2023-04-15T03:50:30;17.83;;;9.65;;
78549;SDS011;68091;52.130;5.570;2023-04-15T03:52:56;15.77;;;9.38;;
78549;SDS011;68091;52.130;5.570;2023-04-15T03:55:21;15.63;;;9.85;;
78549;SDS011;68091;52.130;5.570;2023-04-15T03:57:47;19.98;;;10.85;;
78549;SDS011;68091;52.130;5.570;2023-04-15T04:00:13;17.50;;;9.63;;
78549;SDS011;68091;52.130;5.570;2023-04-15T04:02:42;16.73;;;10.43;;
78549;SDS011;68091;52.130;5.570;2023-04-15T04:05:09;21.55;;;10.65;;
78549;SDS011;68091;52.130;5.570;2023-04-15T04:07:35;13.98;;;10.32;;
78549;SDS011;68091;52.130;5.570;2023-04-15T04:10:01;14.35;;;9.43;;
78549;SDS011;68091;52.130;5.570;2023-04-15T04:12:27;19.35;;;11.20;;
78549;SDS011;68091;52.130;5.570;2023-04-15T04:14:53;17.83;;;10.90;;
78549;SDS011;68091;52.130;5.570;2023-04-15T04:17:19;19.63;;;10.80;;
78549;SDS011;68091;52.130;5.570;2023-04-15T04:20:08;19.33;;;10.52;;
78549;SDS011;68091;52.130;5.570;2023-04-15T04:22:37;18.83;;;10.60;;
78549;SDS011;68091;52.130;5.570;2023-04-15T04:25:05;18.38;;;10.93;;
78549;SDS011;68091;52.130;5.570;2023-04-15T04:27:32;19.38;;;11.00;;
78549;SDS011;68091;52.130;5.570;2023-04-15T04:29:59;16.25;;;10.35;;
78549;SDS011;68091;52.130;5.570;2023-04-15T04:32:25;20.75;;;11.82;;
78549;SDS011;68091;52.130;5.570;2023-04-15T04:34:51;16.55;;;11.40;;
78549;SDS011;68091;52.130;5.570;2023-04-15T04:37:17;18.48;;;11.40;;
78549;SDS011;68091;52.130;5.570;2023-04-15T04:39:43;15.60;;;10.95;;
78549;SDS011;68091;52.130;5.570;2023-04-15T04:42:08;20.27;;;11.50;;
78549;SDS011;68091;52.130;5.570;2023-04-15T04:44:34;16.25;;;11.10;;
78549;SDS011;68091;52.130;5.570;2023-04-15T04:47:09;21.33;;;11.23;;
78549;SDS011;68091;52.130;5.570;2023-04-15T04:49:41;20.50;;;11.57;;
78549;SDS011;68091;52.130;5.570;2023-04-15T04:52:07;17.75;;;11.38;;
78549;SDS011;68091;52.130;5.570;2023-04-15T04:54:33;16.08;;;11.07;;
78549;SDS011;68091;52.130;5.570;2023-04-15T04:56:59;21.85;;;12.60;;
78549;SDS011;68091;52.130;5.570;2023-04-15T04:59:25;19.42;;;11.35;;
78549;SDS011;68091;52.130;5.570;2023-04-15T05:01:51;23.65;;;11.95;;
78549;SDS011;68091;52.130;5.570;2023-04-15T05:04:17;18.65;;;11.55;;
78549;SDS011;68091;52.130;5.570;2023-04-15T05:06:49;17.85;;;11.60;;
78549;SDS011;68091;52.130;5.570;2023-04-15T05:09:15;19.55;;;12.32;;
78549;SDS011;68091;52.130;5.570;2023-04-15T05:11:41;18.05;;;11.95;;
78549;SDS011;68091;52.130;5.570;2023-04-15T05:14:09;15.98;;;12.40;;
78549;SDS011;68091;52.130;5.570;2023-04-15T05:16:34;20.73;;;12.27;;
78549;SDS011;68091;52.130;5.570;2023-04-15T05:19:00;24.92;;;13.13;;
78549;SDS011;68091;52.130;5.570;2023-04-15T05:21:26;17.38;;;11.85;;
78549;SDS011;68091;52.130;5.570;2023-04-15T05:23:52;23.38;;;12.48;;
78549;SDS011;68091;52.130;5.570;2023-04-15T05:26:17;18.50;;;12.25;;
78549;SDS011;68091;52.130;5.570;2023-04-15T05:28:43;17.90;;;12.32;;
78549;SDS011;68091;52.130;5.570;2023-04-15T05:31:10;17.98;;;11.73;;
78549;SDS011;68091;52.130;5.570;2023-04-15T05:33:36;22.17;;;12.85;;
78549;SDS011;68091;52.130;5.570;2023-04-15T05:36:04;17.58;;;11.70;;
78549;SDS011;68091;52.130;5.570;2023-04-15T05:38:31;23.10;;;12.27;;
78549;SDS011;68091;52.130;5.570;2023-04-15T05:40:57;23.58;;;12.77;;
78549;SDS011;68091;52.130;5.570;2023-04-15T05:43:23;20.17;;;12.90;;
78549;SDS011;68091;52.130;5.570;2023-04-15T05:45:49;17.70;;;12.02;;
78549;SDS011;68091;52.130;5.570;2023-04-15T05:48:15;17.65;;;12.70;;
78549;SDS011;68091;52.130;5.570;2023-04-15T05:50:41;20.15;;;13.05;;
78549;SDS011;68091;52.130;5.570;2023-04-15T05:53:07;25.02;;;13.27;;
78549;SDS011;68091;52.130;5.570;2023-04-15T05:55:33;19.50;;;13.35;;
78549;SDS011;68091;52.130;5.570;2023-04-15T05:57:59;22.88;;;12.68;;
78549;SDS011;68091;52.130;5.570;2023-04-15T06:00:25;26.40;;;14.55;;
78549;SDS011;68091;52.130;5.570;2023-04-15T06:02:51;21.02;;;13.65;;
78549;SDS011;68091;52.130;5.570;2023-04-15T06:05:17;21.05;;;14.38;;
78549;SDS011;68091;52.130;5.570;2023-04-15T06:07:43;24.60;;;14.18;;
78549;SDS011;68091;52.130;5.570;2023-04-15T06:10:09;23.25;;;14.40;;
78549;SDS011;68091;52.130;5.570;2023-04-15T06:12:35;23.88;;;15.25;;
78549;SDS011;68091;52.130;5.570;2023-04-15T06:15:03;23.08;;;15.13;;
78549;SDS011;68091;52.130;5.570;2023-04-15T06:17:30;24.85;;;15.20;;
78549;SDS011;68091;52.130;5.570;2023-04-15T06:19:56;23.58;;;14.73;;
78549;SDS011;68091;52.130;5.570;2023-04-15T06:22:25;20.63;;;13.88;;
78549;SDS011;68091;52.130;5.570;2023-04-15T06:24:51;20.35;;;13.55;;
78549;SDS011;68091;52.130;5.570;2023-04-15T06:27:17;23.58;;;13.70;;
78549;SDS011;68091;52.130;5.570;2023-04-15T06:29:43;25.20;;;14.20;;
78549;SDS011;68091;52.130;5.570;2023-04-15T06:32:09;20.55;;;14.13;;
78549;SDS011;68091;52.130;5.570;2023-04-15T06:34:36;19.77;;;14.13;;
78549;SDS011;68091;52.130;5.570;2023-04-15T06:37:02;21.02;;;13.00;;
78549;SDS011;68091;52.130;5.570;2023-04-15T06:39:28;21.27;;;12.82;;
78549;SDS011;68091;52.130;5.570;2023-04-15T06:41:53;23.25;;;13.18;;
78549;SDS011;68091;52.130;5.570;2023-04-15T06:44:20;21.38;;;14.00;;
78549;SDS011;68091;52.130;5.570;2023-04-15T06:46:46;20.30;;;13.45;;
78549;SDS011;68091;52.130;5.570;2023-04-15T06:49:12;19.80;;;13.15;;
78549;SDS011;68091;52.130;5.570;2023-04-15T06:51:38;18.65;;;13.52;;
78549;SDS011;68091;52.130;5.570;2023-04-15T06:54:04;24.35;;;13.38;;
78549;SDS011;68091;52.130;5.570;2023-04-15T06:56:33;20.85;;;13.38;;
78549;SDS011;68091;52.130;5.570;2023-04-15T06:58:59;22.38;;;13.23;;
78549;SDS011;68091;52.130;5.570;2023-04-15T07:01:25;16.90;;;12.90;;
78549;SDS011;68091;52.130;5.570;2023-04-15T07:03:51;17.63;;;12.02;;
78549;SDS011;68091;52.130;5.570;2023-04-15T07:06:17;18.35;;;12.15;;
78549;SDS011;68091;52.130;5.570;2023-04-15T07:08:43;18.42;;;12.68;;
78549;SDS011;68091;52.130;5.570;2023-04-15T07:11:09;22.77;;;12.13;;
78549;SDS011;68091;52.130;5.570;2023-04-15T07:13:35;18.73;;;12.95;;
78549;SDS011;68091;52.130;5.570;2023-04-15T07:16:01;19.73;;;12.02;;
78549;SDS011;68091;52.130;5.570;2023-04-15T07:18:27;18.70;;;12.60;;
78549;SDS011;68091;52.130;5.570;2023-04-15T07:20:53;19.45;;;12.55;;
78549;SDS011;68091;52.130;5.570;2023-04-15T07:23:18;20.67;;;12.15;;
78549;SDS011;68091;52.130;5.570;2023-04-15T07:25:45;18.58;;;13.18;;
78549;SDS011;68091;52.130;5.570;2023-04-15T07:28:13;16.35;;;10.68;;
78549;SDS011;68091;52.130;5.570;2023-04-15T07:30:39;16.15;;;10.93;;
78549;SDS011;68091;52.130;5.570;2023-04-15T07:33:05;13.48;;;9.02;;
78549;SDS011;68091;52.130;5.570;2023-04-15T07:35:31;14.80;;;9.02;;
78549;SDS011;68091;52.130;5.570;2023-04-15T07:37:57;13.85;;;9.07;;
78549;SDS011;68091;52.130;5.570;2023-04-15T07:40:23;11.93;;;8.43;;
78549;SDS011;68091;52.130;5.570;2023-04-15T07:42:49;12.18;;;7.97;;
78549;SDS011;68091;52.130;5.570;2023-04-15T07:45:15;10.07;;;6.88;;
78549;SDS011;68091;52.130;5.570;2023-04-15T07:47:47;10.52;;;6.68;;
78549;SDS011;68091;52.130;5.570;2023-04-15T07:50:13;10.35;;;6.95;;
78549;SDS011;68091;52.130;5.570;2023-04-15T07:52:39;10.45;;;7.00;;
78549;SDS011;68091;52.130;5.570;2023-04-15T07:55:08;12.25;;;7.80;;
78549;SDS011;68091;52.130;5.570;2023-04-15T07:57:34;11.40;;;8.02;;
78549;SDS011;68091;52.130;5.570;2023-04-15T08:00:01;13.13;;;7.75;;
78549;SDS011;68091;52.130;5.570;2023-04-15T08:02:29;13.07;;;8.10;;
78549;SDS011;68091;52.130;5.570;2023-04-15T08:04:56;10.95;;;8.27;;
78549;SDS011;68091;52.130;5.570;2023-04-15T08:07:22;11.38;;;8.23;;
78549;SDS011;68091;52.130;5.570;2023-04-15T08:09:49;16.65;;;8.68;;
78549;SDS011;68091;52.130;5.570;2023-04-15T08:12:15;9.85;;;7.28;;
78549;SDS011;68091;52.130;5.570;2023-04-15T08:14:41;11.75;;;6.93;;
78549;SDS011;68091;52.130;5.570;2023-04-15T08:17:07;9.02;;;6.70;;
78549;SDS011;68091;52.130;5.570;2023-04-15T08:19:36;11.25;;;7.00;;
78549;SDS011;68091;52.130;5.570;2023-04-15T08:22:02;8.50;;;5.97;;
78549;SDS011;68091;52.130;5.570;2023-04-15T08:24:31;11.35;;;6.15;;
78549;SDS011;68091;52.130;5.570;2023-04-15T08:26:57;9.48;;;6.28;;
78549;SDS011;68091;52.130;5.570;2023-04-15T08:29:24;9.32;;;6.82;;
78549;SDS011;68091;52.130;5.570;2023-04-15T08:31:50;8.35;;;5.68;;
78549;SDS011;68091;52.130;5.570;2023-04-15T08:34:18;8.52;;;5.38;;
78549;SDS011;68091;52.130;5.570;2023-04-15T08:36:51;9.68;;;5.53;;
78549;SDS011;68091;52.130;5.570;2023-04-15T08:39:16;10.30;;;5.45;;
78549;SDS011;68091;52.130;5.570;2023-04-15T08:41:46;9.15;;;5.57;;
78549;SDS011;68091;52.130;5.570;2023-04-15T08:44:25;9.60;;;5.38;;
78549;SDS011;68091;52.130;5.570;2023-04-15T08:47:00;8.95;;;5.22;;
78549;SDS011;68091;52.130;5.570;2023-04-15T08:49:29;5.28;;;4.30;;
78549;SDS011;68091;52.130;5.570;2023-04-15T08:51:57;5.85;;;4.20;;
78549;SDS011;68091;52.130;5.570;2023-04-15T08:54:24;5.97;;;4.47;;
78549;SDS011;68091;52.130;5.570;2023-04-15T08:56:51;6.10;;;4.50;;
78549;SDS011;68091;52.130;5.570;2023-04-15T08:59:20;7.43;;;4.30;;
78549;SDS011;68091;52.130;5.570;2023-04-15T09:01:47;6.55;;;4.78;;
78549;SDS011;68091;52.130;5.570;2023-04-15T09:04:15;8.45;;;4.70;;
78549;SDS011;68091;52.130;5.570;2023-04-15T09:06:45;5.95;;;4.40;;
78549;SDS011;68091;52.130;5.570;2023-04-15T09:09:11;6.05;;;4.20;;
78549;SDS011;68091;52.130;5.570;2023-04-15T09:11:38;5.50;;;3.83;;
78549;SDS011;68091;52.130;5.570;2023-04-15T09:14:04;6.70;;;4.32;;
78549;SDS011;68091;52.130;5.570;2023-04-15T09:16:30;6.32;;;4.43;;
78549;SDS011;68091;52.130;5.570;2023-04-15T09:18:56;10.70;;;4.63;;
78549;SDS011;68091;52.130;5.570;2023-04-15T09:21:22;5.60;;;4.15;;
78549;SDS011;68091;52.130;5.570;2023-04-15T09:23:58;8.07;;;4.90;;
78549;SDS011;68091;52.130;5.570;2023-04-15T09:26:32;5.95;;;4.60;;
78549;SDS011;68091;52.130;5.570;2023-04-15T09:29:05;10.57;;;5.35;;
78549;SDS011;68091;52.130;5.570;2023-04-15T09:31:33;8.20;;;4.32;;
78549;SDS011;68091;52.130;5.570;2023-04-15T09:33:59;5.53;;;3.47;;
78549;SDS011;68091;52.130;5.570;2023-04-15T09:36:25;4.97;;;3.40;;
78549;SDS011;68091;52.130;5.570;2023-04-15T09:38:57;5.88;;;3.17;;
78549;SDS011;68091;52.130;5.570;2023-04-15T09:41:27;10.52;;;4.07;;
78549;SDS011;68091;52.130;5.570;2023-04-15T09:43:53;5.22;;;2.90;;
78549;SDS011;68091;52.130;5.570;2023-04-15T09:46:19;7.35;;;3.75;;
78549;SDS011;68091;52.130;5.570;2023-04-15T09:48:45;5.40;;;2.88;;
78549;SDS011;68091;52.130;5.570;2023-04-15T09:51:10;4.10;;;2.58;;
78549;SDS011;68091;52.130;5.570;2023-04-15T09:53:36;4.35;;;2.28;;
78549;SDS011;68091;52.130;5.570;2023-04-15T09:56:02;5.10;;;2.15;;
78549;SDS011;68091;52.130;5.570;2023-04-15T09:58:32;3.58;;;2.55;;
78549;SDS011;68091;52.130;5.570;2023-04-15T10:00:59;2.85;;;2.40;;
78549;SDS011;68091;52.130;5.570;2023-04-15T10:03:37;3.30;;;2.67;;
78549;SDS011;68091;52.130;5.570;2023-04-15T10:06:06;4.63;;;2.72;;
78549;SDS011;68091;52.130;5.570;2023-04-15T10:08:33;4.75;;;3.05;;
78549;SDS011;68091;52.130;5.570;2023-04-15T10:11:00;3.60;;;2.47;;
78549;SDS011;68091;52.130;5.570;2023-04-15T10:13:30;3.45;;;2.60;;
78549;SDS011;68091;52.130;5.570;2023-04-15T10:16:10;6.00;;;3.78;;
78549;SDS011;68091;52.130;5.570;2023-04-15T10:18:39;5.03;;;3.47;;
78549;SDS011;68091;52.130;5.570;2023-04-15T10:21:18;6.13;;;4.38;;
78549;SDS011;68091;52.130;5.570;2023-04-15T10:23:46;6.13;;;3.85;;
78549;SDS011;68091;52.130;5.570;2023-04-15T10:26:12;5.47;;;3.63;;
78549;SDS011;68091;52.130;5.570;2023-04-15T10:28:45;5.47;;;3.65;;
78549;SDS011;68091;52.130;5.570;2023-04-15T10:31:12;6.18;;;3.65;;
78549;SDS011;68091;52.130;5.570;2023-04-15T10:33:39;5.57;;;4.20;;
78549;SDS011;68091;52.130;5.570;2023-04-15T10:36:06;7.88;;;4.25;;
78549;SDS011;68091;52.130;5.570;2023-04-15T10:43:46;5.15;;;3.63;;
78549;SDS011;68091;52.130;5.570;2023-04-15T10:51:37;4.75;;;3.50;;
78549;SDS011;68091;52.130;5.570;2023-04-15T10:56:52;7.18;;;3.70;;
78549;SDS011;68091;52.130;5.570;2023-04-15T10:59:38;5.60;;;4.05;;
78549;SDS011;68091;52.130;5.570;2023-04-15T11:02:37;5.70;;;3.70;;
78549;SDS011;68091;52.130;5.570;2023-04-15T11:05:05;6.93;;;3.22;;
78549;SDS011;68091;52.130;5.570;2023-04-15T11:07:35;6.75;;;4.25;;
78549;SDS011;68091;52.130;5.570;2023-04-15T11:15:45;6.38;;;3.38;;
78549;SDS011;68091;52.130;5.570;2023-04-15T11:18:13;5.15;;;3.40;;
78549;SDS011;68091;52.130;5.570;2023-04-15T11:20:48;3.35;;;2.67;;
78549;SDS011;68091;52.130;5.570;2023-04-15T11:25:53;6.25;;;3.15;;
78549;SDS011;68091;52.130;5.570;2023-04-15T11:28:30;5.43;;;2.90;;
78549;SDS011;68091;52.130;5.570;2023-04-15T11:30:57;6.47;;;4.38;;
78549;SDS011;68091;52.130;5.570;2023-04-15T11:33:29;4.10;;;3.25;;
78549;SDS011;68091;52.130;5.570;2023-04-15T11:35:55;6.03;;;3.15;;
78549;SDS011;68091;52.130;5.570;2023-04-15T11:38:21;5.55;;;3.50;;
78549;SDS011;68091;52.130;5.570;2023-04-15T11:40:47;7.55;;;3.28;;
78549;SDS011;68091;52.130;5.570;2023-04-15T11:43:15;8.75;;;3.90;;
78549;SDS011;68091;52.130;5.570;2023-04-15T11:45:52;5.45;;;2.95;;
78549;SDS011;68091;52.130;5.570;2023-04-15T11:48:24;4.45;;;2.72;;
78549;SDS011;68091;52.130;5.570;2023-04-15T11:50:55;5.10;;;3.08;;
78549;SDS011;68091;52.130;5.570;2023-04-15T11:56:17;4.85;;;2.95;;
78549;SDS011;68091;52.130;5.570;2023-04-15T11:58:48;4.95;;;2.78;;
78549;SDS011;68091;52.130;5.570;2023-04-15T12:01:17;6.65;;;3.08;;
78549;SDS011;68091;52.130;5.570;2023-04-15T12:03:46;3.85;;;2.88;;
78549;SDS011;68091;52.130;5.570;2023-04-15T12:06:17;7.00;;;2.67;;
78549;SDS011;68091;52.130;5.570;2023-04-15T12:11:34;5.22;;;2.28;;
78549;SDS011;68091;52.130;5.570;2023-04-15T12:16:56;6.65;;;2.38;;
78549;SDS011;68091;52.130;5.570;2023-04-15T12:19:37;3.67;;;1.70;;
78549;SDS011;68091;52.130;5.570;2023-04-15T12:22:05;6.60;;;1.85;;
78549;SDS011;68091;52.130;5.570;2023-04-15T12:24:33;4.00;;;1.60;;
78549;SDS011;68091;52.130;5.570;2023-04-15T12:27:02;4.20;;;2.67;;
78549;SDS011;68091;52.130;5.570;2023-04-15T12:29:32;3.63;;;2.22;;
78549;SDS011;68091;52.130;5.570;2023-04-15T12:32:12;2.85;;;1.90;;
78549;SDS011;68091;52.130;5.570;2023-04-15T12:34:46;3.95;;;2.08;;
78549;SDS011;68091;52.130;5.570;2023-04-15T12:37:15;5.05;;;2.58;;
78549;SDS011;68091;52.130;5.570;2023-04-15T12:39:41;4.97;;;2.10;;
78549;SDS011;68091;52.130;5.570;2023-04-15T12:42:09;4.32;;;1.80;;
78549;SDS011;68091;52.130;5.570;2023-04-15T12:44:35;3.47;;;1.75;;
78549;SDS011;68091;52.130;5.570;2023-04-15T12:47:02;3.83;;;1.80;;
78549;SDS011;68091;52.130;5.570;2023-04-15T12:49:28;4.38;;;2.35;;
78549;SDS011;68091;52.130;5.570;2023-04-15T12:51:55;4.85;;;1.70;;
78549;SDS011;68091;52.130;5.570;2023-04-15T12:54:22;4.75;;;2.05;;
78549;SDS011;68091;52.130;5.570;2023-04-15T12:56:48;6.07;;;1.83;;
78549;SDS011;68091;52.130;5.570;2023-04-15T12:59:15;3.38;;;1.40;;
78549;SDS011;68091;52.130;5.570;2023-04-15T13:01:45;5.65;;;1.58;;
78549;SDS011;68091;52.130;5.570;2023-04-15T13:04:12;5.30;;;1.77;;
78549;SDS011;68091;52.130;5.570;2023-04-15T13:06:42;5.20;;;1.83;;
78549;SDS011;68091;52.130;5.570;2023-04-15T13:09:08;4.28;;;1.67;;
78549;SDS011;68091;52.130;5.570;2023-04-15T13:11:34;5.80;;;1.88;;
78549;SDS011;68091;52.130;5.570;2023-04-15T13:14:00;3.92;;;2.00;;
78549;SDS011;68091;52.130;5.570;2023-04-15T13:16:31;3.55;;;1.70;;
78549;SDS011;68091;52.130;5.570;2023-04-15T13:18:58;4.80;;;1.58;;
78549;SDS011;68091;52.130;5.570;2023-04-15T13:21:24;3.95;;;1.65;;
78549;SDS011;68091;52.130;5.570;2023-04-15T13:23:51;3.88;;;1.50;;
78549;SDS011;68091;52.130;5.570;2023-04-15T13:26:17;2.60;;;1.40;;
78549;SDS011;68091;52.130;5.570;2023-04-15T13:28:42;6.03;;;1.33;;
78549;SDS011;68091;52.130;5.570;2023-04-15T13:31:08;5.72;;;1.48;;
78549;SDS011;68091;52.130;5.570;2023-04-15T13:33:34;3.60;;;1.38;;
78549;SDS011;68091;52.130;5.570;2023-04-15T13:36:00;4.38;;;1.65;;
78549;SDS011;68091;52.130;5.570;2023-04-15T13:38:26;5.10;;;1.95;;
78549;SDS011;68091;52.130;5.570;2023-04-15T13:40:58;5.50;;;1.95;;
78549;SDS011;68091;52.130;5.570;2023-04-15T13:43:24;8.27;;;1.95;;
78549;SDS011;68091;52.130;5.570;2023-04-15T13:45:50;4.25;;;1.70;;
78549;SDS011;68091;52.130;5.570;2023-04-15T13:48:16;3.05;;;1.65;;
78549;SDS011;68091;52.130;5.570;2023-04-15T13:50:42;2.42;;;1.63;;
78549;SDS011;68091;52.130;5.570;2023-04-15T13:53:09;4.25;;;1.52;;
78549;SDS011;68091;52.130;5.570;2023-04-15T13:55:42;1.90;;;1.50;;
78549;SDS011;68091;52.130;5.570;2023-04-15T13:58:51;3.70;;;2.17;;
78549;SDS011;68091;52.130;5.570;2023-04-15T14:01:22;5.15;;;2.10;;
78549;SDS011;68091;52.130;5.570;2023-04-15T14:03:52;6.38;;;1.75;;
78549;SDS011;68091;52.130;5.570;2023-04-15T14:06:18;5.47;;;1.75;;
78549;SDS011;68091;52.130;5.570;2023-04-15T14:08:43;4.65;;;1.63;;
78549;SDS011;68091;52.130;5.570;2023-04-15T14:11:09;4.40;;;1.50;;
78549;SDS011;68091;52.130;5.570;2023-04-15T14:13:35;3.45;;;1.75;;
78549;SDS011;68091;52.130;5.570;2023-04-15T14:16:01;4.90;;;1.60;;
78549;SDS011;68091;52.130;5.570;2023-04-15T14:18:29;4.32;;;1.60;;
78549;SDS011;68091;52.130;5.570;2023-04-15T14:20:58;5.97;;;1.40;;
78549;SDS011;68091;52.130;5.570;2023-04-15T14:23:24;3.75;;;1.52;;
78549;SDS011;68091;52.130;5.570;2023-04-15T14:25:50;5.40;;;1.98;;
78549;SDS011;68091;52.130;5.570;2023-04-15T14:28:16;6.85;;;3.08;;
78549;SDS011;68091;52.130;5.570;2023-04-15T14:30:44;7.03;;;2.15;;
78549;SDS011;68091;52.130;5.570;2023-04-15T14:33:10;5.47;;;2.40;;
78549;SDS011;68091;52.130;5.570;2023-04-15T14:35:36;40.25;;;5.20;;
78549;SDS011;68091;52.130;5.570;2023-04-15T14:38:18;7.85;;;2.40;;
78549;SDS011;68091;52.130;5.570;2023-04-15T14:41:07;9.93;;;2.42;;
78549;SDS011;68091;52.130;5.570;2023-04-15T14:43:34;6.90;;;2.47;;
78549;SDS011;68091;52.130;5.570;2023-04-15T14:46:03;7.63;;;2.83;;
78549;SDS011;68091;52.130;5.570;2023-04-15T14:48:29;6.43;;;2.15;;
78549;SDS011;68091;52.130;5.570;2023-04-15T14:50:58;5.78;;;2.58;;
78549;SDS011;68091;52.130;5.570;2023-04-15T14:53:24;5.93;;;2.78;;
78549;SDS011;68091;52.130;5.570;2023-04-15T14:55:50;6.88;;;2.38;;
78549;SDS011;68091;52.130;5.570;2023-04-15T14:58:16;17.75;;;10.45;;
78549;SDS011;68091;52.130;5.570;2023-04-15T15:00:42;16.42;;;7.80;;
78549;SDS011;68091;52.130;5.570;2023-04-15T15:03:09;6.47;;;2.72;;
78549;SDS011;68091;52.130;5.570;2023-04-15T15:05:45;10.60;;;3.30;;
78549;SDS011;68091;52.130;5.570;2023-04-15T15:08:14;12.68;;;2.53;;
78549;SDS011;68091;52.130;5.570;2023-04-15T15:10:46;6.22;;;1.98;;